Arpin, WI

7:36 PM CDT on October 24, 2014 (GMT -0500)
Marshfield Municipal | Change Station
CLOSE
Current Station
Airport
Location: Marshfield,
Elevation: 1276 ft
Nearby Weather Stations

Elev 1276 ft 44.64 °N, 90.19 °W | Updated 42 minutes ago

Overcast
Overcast
57 °F
Feels Like 57 °F
N
5
Wind Variable Wind from SSW

Today
High -- | Low -- °F
--% Chance of Precip.
Yesterday
High -- | Low -- °F
Precip. -- in
7:27 AM 6:00 PM
New Moon, 1% visible
Pressure 29.90 in
Visibility 10.0 miles
Clouds Overcast 2300 ft
Dew Point 51 °F
Humidity 81%
Rainfall 0.00 in
Snow Depth Not available.
UV 0 out of 12
Pollen .60 out of 12
Air Quality Not available.
Flu Activity Sporadic
METAR KMFI 242354Z AUTO 21004KT 10SM OVC023 14/11 A2988 RMK AO2 SLP124 T01390106 10144 20100 53002

More Conditions Fewer Conditions

Pressure 29.90 in
Visibility 10.0 miles
Clouds Overcast 2300 ft
Dew Point 51 °F
Humidity 81%
Rainfall 0.00 in
Snow Depth Not available.
UV 0 out of 12
Pollen .60 out of 12
Air Quality Not available.
Flu Activity Sporadic
METAR KMFI 242354Z AUTO 21004KT 10SM OVC023 14/11 A2988 RMK AO2 SLP124 T01390106 10144 20100 53002

More Conditions Fewer Conditions

10-Day Weather Forecast

Almanac

Astronomy

Oct. 24, 2014 Rise Set
Actual Time 7:27 AM CDT 6:00 PM CDT
Civil Twilight 6:57 AM CDT 6:30 PM CDT
Nautical Twilight 6:23 AM CDT 7:04 PM CDT
Astronomical Twilight 5:49 AM CDT 7:38 PM CDT
Moon 8:07 AM CDT (10/24) 6:39 PM CDT (10/24)
Length of Visible Light 11h 33m
Length of Day
10h 33m
Tomorrow will be 2m 52s shorter.
New Moon, 1% of the Moon is Illuminated
Today
New Moon
Oct 30
First Quarter
Nov 6
Full
Nov 14
Last Quarter
Nov 22
New

Today's Extremes

State Highs State Lows

Community

WunderPhotos

Upload Photos

1,764,727 photos uploaded!

WunderBlogs® & News

Nearby

Snow Depth

Station Depth Elevation
No new snow has been reported.

Earthquake Activity

City Distance Mag. Time & Date
No recent earthquake activity has been reported nearby.
Minimum magnitude displayed is 2.5.

Coastal Water Temperatures

Place Temperature
No Stations Reporting

Nearby Weather Stations